Livingston, California
Current Conditions -  °F | °C
As of 2:45 PM on Friday 31 Oct 2014 (Local Time) from KMER Reporting Station
Broken Clouds Broken Clouds  
Wind Chill: 72°   Ceiling: 6000
Heat Index: 72°   Visibility: 10mi
Dew Point: 52°   Wind: 9mph
Humidity: 50%   Direction: 300°WNW
Pressure: 29.78"   Gusts: NA
Location:  37.38°N, 120.72°W
Report Text: KMER 312145Z 30008KT 10SM FEW044 BKN060 22/11 A2978
Loading
Personal Weather Stations






























Interactive Weather Map
Tropical Storm Tracking
New forecast layout! Learn more

10-Day Weather Forecast

Advertisements
Track Severe Weather on mobile